Time;durP1;ratioP1;P1;durP2;ratioP2;P2;SDS_P1;SDS_P2;PMS_P1;PMS_P2;Temp;Humidity;BMP_temperature;BMP_pressure;BME280_temperature;BME280_humidity;BME280_pressure;Samples;Min_cycle;Max_cycle;Signal;HPM_P1;HPM_P2
2022/10/03 00:00:22;;;;;;;1.25;1.15;;;;;;;8.24;89.65;102501.88;4976863;28;20074;-86
2022/10/03 00:03:16;;;;;;;1.85;1.20;;;;;;;8.23;89.75;102494.97;4977271;28;20105;-86
2022/10/03 00:06:14;;;;;;;1.20;1.10;;;;;;;8.22;89.75;102495.84;4975355;28;20114;-87
2022/10/03 00:08:57;;;;;;;1.48;1.38;;;;;;;8.19;89.58;102502.69;4977284;28;20026;-87
2022/10/03 00:11:42;;;;;;;1.90;1.20;;;;;;;8.15;89.71;102497.41;4977602;28;20034;-86
2022/10/03 00:14:21;;;;;;;1.95;1.20;;;;;;;8.13;89.87;102493.91;5028596;23;20442;-86
2022/10/03 00:17:01;;;;;;;2.55;1.63;;;;;;;8.12;89.88;102499.94;4977526;28;20034;-86
2022/10/03 00:19:41;;;;;;;1.40;1.30;;;;;;;8.09;90.03;102503.34;4977826;28;20027;-86
2022/10/03 00:22:28;;;;;;;1.50;1.40;;;;;;;8.07;89.83;102499.84;4976484;28;20489;-86
2022/10/03 00:25:12;;;;;;;1.38;1.27;;;;;;;8.04;89.89;102507.50;4977331;28;20058;-86
2022/10/03 00:28:01;;;;;;;1.80;1.40;;;;;;;8.04;89.90;102508.41;4976669;28;20479;-86
2022/10/03 00:30:41;;;;;;;2.03;1.60;;;;;;;8.01;90.05;102504.84;4977113;28;20125;-87
2022/10/03 00:33:42;;;;;;;2.03;1.60;;;;;;;8.01;90.11;102517.78;4977076;28;20023;-87
2022/10/03 00:36:26;;;;;;;1.70;1.60;;;;;;;7.93;89.93;102516.75;4967745;28;20038;-86
2022/10/03 00:39:22;;;;;;;1.55;1.40;;;;;;;7.87;90.05;102520.06;4976929;28;20034;-87
2022/10/03 00:42:00;;;;;;;1.95;1.60;;;;;;;7.84;90.19;102520.88;4976454;28;20042;-86
2022/10/03 00:44:45;;;;;;;1.65;1.52;;;;;;;7.80;90.18;102524.22;4976959;28;20062;-86
2022/10/03 00:47:53;;;;;;;1.45;1.30;;;;;;;7.76;90.14;102526.69;4976275;28;20031;-86
2022/10/03 00:50:28;;;;;;;2.08;1.38;;;;;;;7.74;90.50;102529.25;4976112;28;20062;-86
2022/10/03 00:53:28;;;;;;;1.60;1.50;;;;;;;7.73;90.37;102532.66;4976967;28;20030;-86
2022/10/03 00:56:38;;;;;;;1.73;1.50;;;;;;;7.71;90.17;102532.63;4960569;28;20038;-87
2022/10/03 00:59:25;;;;;;;1.42;1.33;;;;;;;7.69;90.31;102534.31;4973974;28;20031;-86
2022/10/03 01:01:50;;;;;;;2.97;1.58;;;;;;;7.69;90.37;102542.06;4976668;28;20119;-87
2022/10/03 01:04:44;;;;;;;2.05;1.77;;;;;;;7.69;90.39;102547.25;4976406;28;20067;-87
2022/10/03 01:07:32;;;;;;;1.80;1.70;;;;;;;7.67;90.48;102545.44;4976392;28;20066;-86
2022/10/03 01:10:32;;;;;;;1.42;1.33;;;;;;;7.63;90.36;102548.78;4975879;28;20085;-86
2022/10/03 01:13:13;;;;;;;1.38;1.20;;;;;;;7.60;90.53;102551.28;4954443;28;20131;-86
2022/10/03 01:16:00;;;;;;;1.60;1.50;;;;;;;7.59;90.44;102553.03;4956867;28;20039;-86
2022/10/03 01:18:56;;;;;;;2.97;1.60;;;;;;;7.59;90.61;102558.19;4956814;29;20031;-87
2022/10/03 01:21:37;;;;;;;1.90;1.70;;;;;;;7.57;90.54;102565.88;4956952;29;20028;-87
2022/10/03 01:24:30;;;;;;;2.33;1.70;;;;;;;7.54;90.32;102568.38;4956239;29;20503;-86
2022/10/03 01:27:03;;;;;;;3.25;1.60;;;;;;;7.51;90.58;102568.31;4956905;29;20491;-86
2022/10/03 01:32:46;;;;;;;2.53;1.80;;;;;;;7.47;90.45;102558.75;4956499;29;20042;-86
2022/10/03 01:35:52;;;;;;;1.85;1.45;;;;;;;7.46;90.70;102569.03;4956247;29;20030;-86
2022/10/03 01:38:27;;;;;;;2.88;1.55;;;;;;;7.44;90.89;102565.53;4955495;28;20045;-86
2022/10/03 01:41:02;;;;;;;1.85;1.55;;;;;;;7.43;90.81;102564.66;4975546;28;20027;-86
2022/10/03 01:43:54;;;;;;;1.45;1.35;;;;;;;7.40;nan;102568.03;4975602;28;20081;-86
2022/10/03 01:46:33;;;;;;;2.00;1.50;;;;;;;7.39;90.76;102566.28;4975151;28;20031;-86
2022/10/03 01:49:21;;;;;;;1.65;1.52;;;;;;;7.38;90.74;102561.09;4975366;28;20086;-86
2022/10/03 01:52:04;;;;;;;1.60;1.50;;;;;;;7.35;90.75;102564.47;4975346;28;20385;-86
2022/10/03 01:54:48;;;;;;;1.50;1.40;;;;;;;7.36;90.79;102558.47;4975467;28;20033;-86
2022/10/03 01:57:30;;;;;;;2.83;1.65;;;;;;;7.35;90.88;102561.91;4975519;28;20027;-86
2022/10/03 02:00:09;;;;;;;1.88;1.67;;;;;;;7.34;90.86;102564.41;4974351;28;20049;-86
2022/10/03 02:02:59;;;;;;;2.33;1.63;;;;;;;7.34;91.00;102559.25;4975647;28;20093;-86
2022/10/03 02:05:40;;;;;;;2.33;1.50;;;;;;;7.31;90.76;102566.94;4975063;28;20081;-86
2022/10/03 02:08:21;;;;;;;1.77;1.67;;;;;;;7.26;91.01;102569.41;4974676;28;20077;-86
2022/10/03 02:10:59;;;;;;;1.65;1.55;;;;;;;7.21;91.03;102566.69;4975291;28;20035;-86
2022/10/03 02:13:37;;;;;;;1.48;1.38;;;;;;;7.21;91.02;102569.25;4974381;28;20051;-85
2022/10/03 02:16:52;;;;;;;1.60;1.50;;;;;;;7.20;91.03;102577.88;4974640;28;20431;-86
2022/10/03 02:19:24;;;;;;;1.58;1.48;;;;;;;7.18;91.17;102570.91;4957623;28;20372;-86
2022/10/03 02:21:52;;;;;;;1.50;1.40;;;;;;;7.16;91.11;102577.72;4974588;28;20471;-85
2022/10/03 02:24:27;;;;;;;1.58;1.30;;;;;;;7.15;91.11;102579.44;4975064;28;20050;-86
2022/10/03 02:26:56;;;;;;;1.77;1.55;;;;;;;7.12;91.08;102576.78;4974363;28;20497;-86
2022/10/03 02:29:36;;;;;;;1.30;1.20;;;;;;;7.10;91.12;102575.84;4975060;28;20062;-86
2022/10/03 02:32:26;;;;;;;2.90;1.63;;;;;;;7.09;91.05;102568.97;4974708;28;20118;-86
2022/10/03 02:35:08;;;;;;;1.30;1.20;;;;;;;7.08;91.35;102572.38;4974023;28;20553;-86
2022/10/03 02:38:13;;;;;;;1.73;1.38;;;;;;;7.06;91.17;102577.47;4974916;28;20042;-86
2022/10/03 02:41:12;;;;;;;1.55;1.45;;;;;;;7.03;91.35;102573.94;4974201;28;20057;-86
2022/10/03 02:43:50;;;;;;;1.42;1.33;;;;;;;7.02;91.37;102575.66;4955496;28;20066;-86
2022/10/03 02:46:43;;;;;;;1.70;1.40;;;;;;;7.03;91.20;102573.94;4955356;28;20089;-86
2022/10/03 02:49:24;;;;;;;1.30;1.30;;;;;;;6.99;91.29;102566.94;4954438;29;20026;-86
2022/10/03 02:52:12;;;;;;;1.20;1.10;;;;;;;6.97;91.56;102577.22;4992014;23;20054;-86
2022/10/03 02:54:40;;;;;;;1.63;1.52;;;;;;;6.98;91.51;102567.78;4974056;28;20471;-85
2022/10/03 02:57:36;;;;;;;2.35;1.48;;;;;;;6.97;91.54;102576.38;4973718;28;20026;-86
2022/10/03 03:00:10;;;;;;;1.90;1.50;;;;;;;6.95;91.31;102573.72;4974458;28;20027;-86
2022/10/03 03:03:00;;;;;;;1.20;1.20;;;;;;;6.91;91.50;102570.19;4973906;28;20031;-87
2022/10/03 03:05:57;;;;;;;1.48;1.20;;;;;;;6.90;91.56;102565.84;4974589;28;20030;-87
2022/10/03 03:08:42;;;;;;;1.52;1.42;;;;;;;6.88;91.42;102564.94;4974743;28;20077;-87
2022/10/03 03:11:30;;;;;;;1.63;1.45;;;;;;;6.87;91.43;102567.50;4992253;23;20488;-86
2022/10/03 03:14:33;;;;;;;1.60;1.50;;;;;;;6.85;91.46;102571.72;4973856;28;20121;-86
2022/10/03 03:17:11;;;;;;;1.40;1.30;;;;;;;6.83;91.61;102571.69;4973365;28;20046;-86
2022/10/03 03:19:49;;;;;;;1.50;1.40;;;;;;;6.84;91.75;102570.88;4974141;28;20541;-86
2022/10/03 03:22:26;;;;;;;2.05;1.60;;;;;;;6.87;91.74;102572.66;4973930;28;20023;-86
2022/10/03 03:25:02;;;;;;;;;;;;;;;6.87;91.67;102580.41;4973854;28;20555;-87
2022/10/03 03:27:39;;;;;;;1.77;1.60;;;;;;;6.85;91.64;102582.94;4974240;28;19919;-86
2022/10/03 03:30:11;;;;;;;2.58;1.73;;;;;;;6.85;91.82;102579.47;4974323;28;20802;-86
2022/10/03 03:32:55;;;;;;;1.88;1.70;;;;;;;6.80;91.67;102577.66;4973852;28;20031;-86
2022/10/03 03:35:55;;;;;;;2.47;1.60;;;;;;;6.78;91.49;102578.41;4974204;28;20114;-86
2022/10/03 03:38:43;;;;;;;3.05;1.85;;;;;;;6.77;91.62;102581.81;4973501;28;20034;-86
2022/10/03 03:41:28;;;;;;;2.00;1.90;;;;;;;6.79;91.63;102583.63;4970293;28;20051;-86
2022/10/03 03:44:24;;;;;;;2.13;1.58;;;;;;;6.77;91.60;102585.31;4973446;28;20035;-85
2022/10/03 03:47:08;;;;;;;1.95;1.50;;;;;;;6.78;91.75;102579.31;4973414;28;20026;-85
2022/10/03 03:49:42;;;;;;;2.15;1.80;;;;;;;6.77;91.63;102581.81;4973702;28;20034;-85
2022/10/03 03:52:36;;;;;;;1.75;1.65;;;;;;;6.75;91.74;102579.22;4973552;28;20038;-86
2022/10/03 03:55:40;;;;;;;2.22;1.75;;;;;;;6.74;91.63;102590.38;4973790;28;20065;-86
2022/10/03 03:58:25;;;;;;;2.00;1.80;;;;;;;6.73;91.83;102590.34;4973038;28;20120;-86
2022/10/03 04:01:10;;;;;;;2.35;1.80;;;;;;;6.74;91.72;102589.50;4973693;28;20037;-86
2022/10/03 04:03:48;;;;;;;2.38;1.55;;;;;;;6.71;91.80;102584.25;4973928;28;20483;-86
2022/10/03 04:06:39;;;;;;;2.90;1.77;;;;;;;6.65;91.73;102584.94;4972557;28;20026;-86
2022/10/03 04:09:19;;;;;;;1.83;1.60;;;;;;;6.68;91.72;102594.47;4973798;28;20030;-88
2022/10/03 04:12:08;;;;;;;1.90;1.67;;;;;;;6.65;91.58;102590.09;4973619;28;20043;-84
2022/10/03 04:14:54;;;;;;;2.75;1.95;;;;;;;6.64;91.88;102596.09;4973379;28;20058;-84
2022/10/03 04:21:10;;;;;;;1.98;1.65;;;;;;;6.68;91.84;102602.22;4974267;28;20097;-88
2022/10/03 04:24:23;;;;;;;1.98;1.77;;;;;;;6.69;91.86;102598.81;4974620;28;20038;-90
2022/10/03 04:27:36;;;;;;;1.95;1.77;;;;;;;6.69;91.96;102601.38;4956415;28;20101;-89
2022/10/03 04:30:13;;;;;;;1.95;1.50;;;;;;;6.69;92.09;102598.81;4976892;23;20046;-90
2022/10/03 04:33:07;;;;;;;1.55;1.45;;;;;;;6.69;91.96;102607.44;4976528;28;20158;-90
2022/10/03 04:36:27;;;;;;;1.92;1.70;;;;;;;6.70;92.15;102603.13;4978082;28;20030;-90
2022/10/03 04:38:58;;;;;;;1.80;1.70;;;;;;;6.70;91.97;102601.41;4937334;29;20079;-90
2022/10/03 04:41:34;;;;;;;1.90;1.70;;;;;;;6.71;92.09;102599.72;4970419;28;20034;-90
2022/10/03 04:44:16;;;;;;;2.40;1.83;;;;;;;6.69;91.99;102607.44;4976478;28;20054;-88
2022/10/03 04:46:46;;;;;;;1.88;1.73;;;;;;;6.68;92.03;102604.78;4977178;28;20294;-87
2022/10/03 04:49:34;;;;;;;1.67;1.58;;;;;;;6.65;92.06;102606.44;4975990;28;20026;-86
2022/10/03 04:52:18;;;;;;;1.70;1.60;;;;;;;6.62;91.93;102606.38;4976146;28;20031;-87
2022/10/03 04:54:53;;;;;;;1.88;1.77;;;;;;;6.57;92.02;102602.78;4976572;28;20048;-87
2022/10/03 04:57:37;;;;;;;1.77;1.50;;;;;;;6.57;92.16;102591.59;4976787;28;20031;-87
2022/10/03 05:00:24;;;;;;;1.70;1.60;;;;;;;6.55;92.25;102599.25;4976650;28;20027;-87
2022/10/03 05:03:04;;;;;;;2.78;1.95;;;;;;;6.56;92.26;102595.84;4975395;28;20046;-85
2022/10/03 05:05:39;;;;;;;1.83;1.73;;;;;;;6.58;92.33;102601.94;4976316;28;20035;-86
2022/10/03 05:08:15;;;;;;;2.38;1.95;;;;;;;6.58;92.22;102603.66;4957057;29;20400;-86
2022/10/03 05:10:58;;;;;;;1.90;1.70;;;;;;;6.57;92.29;102602.78;4957118;29;20027;-86
2022/10/03 05:13:41;;;;;;;1.85;1.73;;;;;;;6.56;92.26;102608.75;4957279;29;20078;-86
2022/10/03 05:16:20;;;;;;;1.60;1.50;;;;;;;6.56;92.34;102613.06;4969466;28;20035;-86
2022/10/03 05:18:55;;;;;;;1.98;1.73;;;;;;;6.53;92.16;102611.25;4976318;28;20030;-86
2022/10/03 05:21:46;;;;;;;2.55;1.80;;;;;;;6.48;91.99;102615.41;4975944;28;20029;-86
2022/10/03 05:24:24;;;;;;;1.73;1.63;;;;;;;6.46;92.50;102614.47;4975424;28;20368;-86
2022/10/03 05:27:07;;;;;;;2.00;1.90;;;;;;;6.44;92.43;102611.84;4975740;28;20133;-86
2022/10/03 05:30:10;;;;;;;1.90;1.65;;;;;;;6.45;92.45;102623.03;4982627;23;20054;-86
2022/10/03 05:36:26;;;;;;;1.63;1.52;;;;;;;6.41;92.30;102621.22;5027939;23;20057;-86
2022/10/03 05:39:16;;;;;;;1.80;1.70;;;;;;;6.41;92.55;102631.53;4934599;29;20047;-85
2022/10/03 05:41:52;;;;;;;2.30;1.95;;;;;;;6.39;92.60;102628.88;4935398;29;20059;-86
2022/10/03 05:44:38;;;;;;;2.00;1.80;;;;;;;6.38;92.51;102634.88;4960153;28;20038;-87
2022/10/03 05:50:50;;;;;;;2.05;1.80;;;;;;;6.43;92.67;102641.06;4975547;28;20105;-83
2022/10/03 05:53:53;;;;;;;1.60;1.50;;;;;;;6.41;92.53;102647.88;4976266;28;20042;-90
2022/10/03 05:56:49;;;;;;;1.65;1.55;;;;;;;6.39;92.52;102644.34;4976358;28;20077;-89
2022/10/03 05:59:45;;;;;;;3.13;1.80;;;;;;;6.41;92.69;102634.09;4975661;28;20027;-87
2022/10/03 06:02:14;;;;;;;;;;;;;;;6.41;92.60;102649.59;4975737;28;20125;-87
2022/10/03 06:04:53;;;;;;;1.90;1.80;;;;;;;6.42;92.63;102644.47;4974766;28;19921;-87
2022/10/03 06:07:24;;;;;;;2.05;1.70;;;;;;;6.41;92.07;102650.44;4975548;28;20023;-90
2022/10/03 06:10:03;;;;;;;1.77;1.67;;;;;;;6.43;92.57;102653.94;4976198;28;20031;-92
2022/10/03 06:13:00;;;;;;;1.65;1.55;;;;;;;6.44;92.62;102652.22;4975744;28;20030;-93
2022/10/03 06:15:38;;;;;;;2.13;1.80;;;;;;;6.44;92.56;102652.22;4967832;28;20043;-92
2022/10/03 06:18:52;;;;;;;1.33;1.33;;;;;;;6.46;92.79;102659.22;4976220;28;20490;-92
2022/10/03 06:21:31;;;;;;;1.60;1.50;;;;;;;6.47;92.79;102660.06;4975663;28;20529;-92
2022/10/03 06:24:05;;;;;;;1.50;1.40;;;;;;;6.49;92.72;102658.44;4975496;28;20030;-92
2022/10/03 06:26:54;;;;;;;1.58;1.48;;;;;;;6.53;92.68;102660.25;4975551;28;20093;-91
2022/10/03 06:29:48;;;;;;;2.03;1.50;;;;;;;6.56;92.77;102660.34;4975571;28;20022;-91
2022/10/03 06:32:32;;;;;;;1.60;1.50;;;;;;;6.57;92.77;102656.94;4974662;28;20033;-91
2022/10/03 06:35:27;;;;;;;1.50;1.40;;;;;;;6.59;93.04;102660.47;4973903;28;20046;-90
2022/10/03 06:38:26;;;;;;;1.58;1.48;;;;;;;6.66;92.94;102674.41;4975567;28;20035;-91
2022/10/03 06:41:00;;;;;;;1.50;1.40;;;;;;;6.73;92.66;102676.34;4974900;28;20103;-89
2022/10/03 06:44:22;;;;;;;2.08;1.50;;;;;;;6.79;92.81;102667.91;4975219;28;20081;-89
2022/10/03 06:47:25;;;;;;;1.48;1.38;;;;;;;6.88;93.13;102665.59;4975025;28;20030;-89
2022/10/03 06:50:15;;;;;;;1.38;1.27;;;;;;;7.35;94.92;102664.31;4975524;28;20034;-89
2022/10/03 06:53:07;;;;;;;1.60;1.42;;;;;;;7.85;94.32;102666.50;4975163;28;20101;-89
2022/10/03 06:55:49;;;;;;;1.40;1.30;;;;;;;8.11;93.45;102664.56;4974372;28;20169;-90
2022/10/03 06:58:52;;;;;;;1.75;1.60;;;;;;;8.14;92.57;102667.22;4975118;28;20090;-89
2022/10/03 07:01:53;;;;;;;1.48;1.40;;;;;;;8.15;92.66;102673.28;4974717;28;20122;-89
2022/10/03 07:04:56;;;;;;;1.20;1.10;;;;;;;8.14;92.78;102674.97;4956317;28;20046;-89
2022/10/03 07:08:01;;;;;;;1.70;1.60;;;;;;;8.14;92.64;102674.13;4955923;29;20036;-89
2022/10/03 07:11:08;;;;;;;1.70;1.58;;;;;;;8.15;92.66;102683.63;4955747;29;20110;-89
2022/10/03 07:14:29;;;;;;;1.40;1.30;;;;;;;8.16;93.30;102686.25;4955579;29;20023;-89
2022/10/03 07:17:15;;;;;;;0.88;0.82;;;;;;;8.19;93.14;102680.25;4955389;29;20038;-90
2022/10/03 07:20:16;;;;;;;;;;;;;;;8.22;93.77;102682.94;4956036;29;20038;-90
2022/10/03 07:23:26;;;;;;;2.80;1.80;;;;;;;8.27;94.91;102678.75;4971593;28;20062;-89
2022/10/03 07:25:58;;;;;;;1.50;1.40;;;;;;;8.36;94.36;102691.00;4974908;28;20058;-90
2022/10/03 07:29:05;;;;;;;2.78;1.60;;;;;;;8.44;94.29;102683.44;4974837;28;20396;-90
2022/10/03 07:32:18;;;;;;;1.30;1.20;;;;;;;8.53;94.62;102677.63;4974118;28;20546;-88
2022/10/03 07:34:58;;;;;;;1.15;1.15;;;;;;;8.67;95.42;102690.88;4971683;28;20054;-89
2022/10/03 07:41:15;;;;;;;1.10;1.00;;;;;;;8.88;95.21;102698.25;4975193;28;20525;-89
2022/10/03 07:44:15;;;;;;;0.95;0.95;;;;;;;9.00;95.25;102697.63;4973800;28;20107;-89
2022/10/03 07:47:08;;;;;;;1.23;1.13;;;;;;;9.10;95.02;102697.88;4974842;28;20047;-89
2022/10/03 07:49:48;;;;;;;0.90;0.90;;;;;;;9.20;95.48;102698.06;4974532;28;20031;-89
2022/10/03 07:52:14;;;;;;;1.10;1.10;;;;;;;9.26;95.79;102705.94;4973870;28;20030;-89
2022/10/03 07:55:01;;;;;;;1.17;1.08;;;;;;;9.35;96.09;102710.44;4974615;28;20092;-89
2022/10/03 07:58:13;;;;;;;1.55;1.40;;;;;;;9.46;96.72;102713.25;4973737;28;20113;-89
2022/10/03 08:01:03;;;;;;;2.78;1.80;;;;;;;9.60;98.51;102721.28;4974707;28;20026;-89
2022/10/03 08:03:44;;;;;;;2.30;2.10;;;;;;;9.68;98.46;102714.50;4981086;23;20542;-89
2022/10/03 08:06:23;;;;;;;3.42;2.05;;;;;;;9.77;97.60;102719.88;4973048;28;20038;-89
2022/10/03 08:09:38;;;;;;;1.88;1.75;;;;;;;9.88;97.09;102715.75;4978256;28;20019;-88
2022/10/03 08:12:50;;;;;;;1.73;1.60;;;;;;;10.03;98.31;102722.91;4977257;28;20031;-88
2022/10/03 08:15:26;;;;;;;2.45;2.05;;;;;;;10.16;97.95;102717.94;4978093;28;20042;-88
2022/10/03 08:18:10;;;;;;;2.00;1.70;;;;;;;10.29;97.61;102712.09;4977622;28;20030;-89
2022/10/03 08:20:58;;;;;;;1.60;1.50;;;;;;;10.39;97.72;102710.56;4977825;28;20047;-89
2022/10/03 08:24:05;;;;;;;1.40;1.30;;;;;;;10.52;97.54;102705.56;4977851;28;20413;-89
2022/10/03 08:26:54;;;;;;;3.13;2.20;;;;;;;10.73;99.46;102712.78;4977280;28;20539;-88
2022/10/03 08:30:08;;;;;;;6.68;3.00;;;;;;;10.99;100.00;102707.94;5029895;23;20061;-88
2022/10/03 08:32:57;;;;;;;3.67;2.50;;;;;;;11.17;99.32;102709.88;4958083;28;20477;-89
2022/10/03 08:35:44;;;;;;;3.17;2.35;;;;;;;11.33;98.46;102712.69;4967509;28;20891;-89
2022/10/03 08:38:42;;;;;;;2.10;1.95;;;;;;;11.46;98.13;102714.56;4977568;28;20042;-89
2022/10/03 08:41:44;;;;;;;2.15;1.58;;;;;;;11.58;97.69;102714.69;4977040;28;20023;-89
2022/10/03 08:44:34;;;;;;;1.90;1.40;;;;;;;11.71;97.86;102722.59;4977834;28;20042;-89
2022/10/03 08:47:50;;;;;;;1.67;1.58;;;;;;;11.90;97.72;102719.34;4976825;28;20037;-88
2022/10/03 08:51:10;;;;;;;1.88;1.70;;;;;;;12.11;97.41;102722.13;4977594;28;20034;-89
2022/10/03 08:53:56;;;;;;;1.50;1.40;;;;;;;12.24;97.20;102716.16;4976940;28;20027;-89
2022/10/03 08:56:52;;;;;;;1.85;1.70;;;;;;;12.35;96.68;102726.69;4977099;28;20480;-89
2022/10/03 08:59:55;;;;;;;2.55;1.50;;;;;;;12.50;96.75;102731.13;4977826;28;20034;-89
2022/10/03 09:03:01;;;;;;;1.38;1.27;;;;;;;12.61;96.25;102733.81;4976576;28;20030;-89
2022/10/03 09:05:58;;;;;;;1.10;1.10;;;;;;;12.71;96.33;102724.31;4977181;28;20030;-89
2022/10/03 09:08:43;;;;;;;1.00;1.00;;;;;;;12.83;96.05;102722.63;4973464;28;20121;-89
2022/10/03 09:11:27;;;;;;;1.80;1.70;;;;;;;12.96;95.31;102728.78;4977203;28;20109;-89
2022/10/03 09:14:21;;;;;;;2.72;1.90;;;;;;;13.00;94.52;102727.06;4976982;28;20041;-89
2022/10/03 09:16:58;;;;;;;1.90;1.70;;;;;;;13.00;94.62;102734.88;4976330;28;20035;-89
2022/10/03 09:19:51;;;;;;;2.13;1.80;;;;;;;13.02;94.45;102727.97;4977144;28;20038;-90
2022/10/03 09:22:19;;;;;;;1.90;1.65;;;;;;;13.18;94.53;102731.50;4976254;28;20044;-89
2022/10/03 09:24:54;;;;;;;2.63;1.50;;;;;;;13.38;94.25;102723.75;4976381;28;20039;-89
2022/10/03 09:27:29;;;;;;;1.70;1.20;;;;;;;13.62;94.29;102718.63;4976993;28;20471;-89
2022/10/03 09:30:09;;;;;;;1.17;1.10;;;;;;;13.79;94.39;102714.28;4976167;28;20086;-89
2022/10/03 09:32:57;;;;;;;1.52;1.40;;;;;;;14.00;93.88;102723.88;4976945;28;20034;-88
2022/10/03 09:36:12;;;;;;;1.52;0.90;;;;;;;14.11;93.72;102712.56;4957623;28;20047;-89
2022/10/03 09:38:50;;;;;;;2.33;1.80;;;;;;;14.19;92.46;102703.88;4917217;29;20469;-89
2022/10/03 09:41:57;;;;;;;1.70;1.60;;;;;;;14.29;91.76;102702.13;4968807;28;20067;-89
2022/10/03 09:44:37;;;;;;;1.67;1.40;;;;;;;14.34;91.20;102700.38;4970039;28;20042;-88
2022/10/03 09:47:25;;;;;;;1.60;1.40;;;;;;;14.37;90.51;102699.47;4976266;28;20031;-88
2022/10/03 09:49:53;;;;;;;4.35;2.10;;;;;;;14.38;88.31;102700.38;4975079;28;20035;-87
2022/10/03 09:52:49;;;;;;;2.45;1.50;;;;;;;14.38;90.01;102689.91;4975924;28;20038;-88
2022/10/03 09:55:30;;;;;;;1.20;1.10;;;;;;;14.40;90.18;102693.41;4956818;29;20046;-88
2022/10/03 09:58:02;;;;;;;1.05;0.93;;;;;;;14.45;90.21;102694.25;4955686;28;20033;-88
2022/10/03 10:00:49;;;;;;;1.52;1.27;;;;;;;14.52;88.72;102696.84;4956526;28;20023;-88
2022/10/03 10:03:28;;;;;;;2.85;1.40;;;;;;;14.59;89.10;102699.44;4957105;28;20424;-88
2022/10/03 10:06:05;;;;;;;1.63;1.33;;;;;;;14.60;87.26;102696.84;4955526;28;20086;-88
2022/10/03 10:09:04;;;;;;;1.25;1.10;;;;;;;14.63;88.62;102699.44;4956853;28;20035;-91
2022/10/03 10:11:57;;;;;;;1.10;0.90;;;;;;;14.73;88.79;102691.63;4956359;28;20031;-87
2022/10/03 10:14:54;;;;;;;1.00;0.98;;;;;;;14.82;88.94;102686.34;4956675;28;20035;-88
2022/10/03 10:17:46;;;;;;;1.00;0.90;;;;;;;14.91;88.58;102688.94;4955899;28;20617;-89
2022/10/03 10:20:38;;;;;;;1.38;1.20;;;;;;;14.97;88.11;102696.72;4960209;28;20409;-92
2022/10/03 10:23:33;;;;;;;1.42;1.00;;;;;;;14.98;86.03;102698.47;4974836;28;20038;-81
2022/10/03 10:26:46;;;;;;;2.30;1.33;;;;;;;15.04;86.14;102699.34;4974223;28;20035;-81
2022/10/03 10:29:21;;;;;;;1.80;1.15;;;;;;;15.12;82.21;102700.16;4933310;29;20083;-82
2022/10/03 10:32:12;;;;;;;3.05;1.52;;;;;;;15.27;83.25;102684.41;4933947;29;20040;-81
2022/10/03 10:35:22;;;;;;;3.92;1.80;;;;;;;15.46;84.54;102686.03;4965206;28;20570;-82
2022/10/03 10:38:15;;;;;;;2.35;1.63;;;;;;;15.65;84.59;102687.66;4974658;28;20034;-82
2022/10/03 10:41:18;;;;;;;3.80;1.85;;;;;;;15.83;84.02;102680.53;4974105;28;20468;-85
2022/10/03 10:43:56;;;;;;;1.67;1.50;;;;;;;15.96;84.31;102690.06;4974463;28;20026;-85
2022/10/03 10:46:57;;;;;;;5.40;2.30;;;;;;;16.11;81.34;102691.66;4973952;28;20033;-84
2022/10/03 10:49:44;;;;;;;3.85;2.10;;;;;;;16.23;83.28;102693.31;4972989;28;20483;-85
2022/10/03 10:52:37;;;;;;;5.80;2.47;;;;;;;16.36;82.04;102694.06;4974505;28;20030;-85
2022/10/03 10:55:40;;;;;;;3.63;1.88;;;;;;;16.54;80.75;102692.16;4973222;28;20456;-84
2022/10/03 10:58:17;;;;;;;2.22;1.55;;;;;;;16.76;79.30;102698.88;4954977;28;20067;-85
2022/10/03 11:01:16;;;;;;;3.45;1.92;;;;;;;16.87;79.29;102695.25;4954458;29;20069;-84
2022/10/03 11:04:06;;;;;;;1.70;1.42;;;;;;;16.87;80.72;102690.88;4954933;29;20473;-84
2022/10/03 11:06:37;;;;;;;3.75;1.50;;;;;;;16.86;78.50;102696.16;4955255;29;20036;-84
2022/10/03 11:09:36;;;;;;;2.20;1.30;;;;;;;16.88;80.09;102689.13;5021821;23;20064;-87
2022/10/03 11:12:38;;;;;;;2.28;0.98;;;;;;;16.88;76.95;102683.88;4974098;28;20027;-88
2022/10/03 11:15:35;;;;;;;2.13;1.00;;;;;;;16.88;80.09;102686.50;4973300;28;20041;-85
2022/10/03 11:18:34;;;;;;;1.88;0.75;;;;;;;16.97;80.20;102687.28;4973822;28;20038;-84
2022/10/03 11:21:03;;;;;;;1.10;0.88;;;;;;;17.08;76.63;102674.03;4974014;28;20038;-87
2022/10/03 11:24:12;;;;;;;2.78;1.10;;;;;;;17.12;78.27;102672.22;4974190;28;20034;-87
2022/10/03 11:27:09;;;;;;;1.02;1.00;;;;;;;17.17;76.15;102665.16;4973988;28;20406;-87
2022/10/03 11:29:46;;;;;;;1.45;0.80;;;;;;;17.24;71.22;102663.31;4973513;28;20038;-85
2022/10/03 11:32:44;;;;;;;0.85;0.77;;;;;;;17.24;76.80;102666.81;4973893;28;20022;-87
2022/10/03 11:35:38;;;;;;;2.45;1.00;;;;;;;17.16;74.95;102666.06;4973119;28;20129;-87
2022/10/03 11:38:21;;;;;;;3.25;1.10;;;;;;;17.20;76.33;102670.34;4973341;28;20062;-87
2022/10/03 11:41:18;;;;;;;2.33;0.98;;;;;;;17.34;71.19;102670.16;4974408;28;20030;-87
2022/10/03 11:43:59;;;;;;;1.02;0.82;;;;;;;17.51;75.25;102671.66;4977722;28;20037;-87
2022/10/03 11:46:33;;;;;;;1.15;0.88;;;;;;;17.68;76.36;102669.63;4977857;28;20019;-86
2022/10/03 11:49:37;;;;;;;0.70;0.70;;;;;;;17.85;75.07;102669.34;4977777;28;20030;-86
2022/10/03 11:52:30;;;;;;;1.67;0.80;;;;;;;17.89;75.24;102670.19;4962191;28;20043;-86
2022/10/03 11:55:13;;;;;;;0.75;0.75;;;;;;;17.88;74.51;102668.47;4977577;28;20483;-87
2022/10/03 11:57:44;;;;;;;0.60;0.47;;;;;;;17.87;74.20;102670.22;4977153;28;20026;-87
2022/10/03 12:00:18;;;;;;;1.75;0.90;;;;;;;17.85;72.48;102671.97;4977776;28;20023;-87
2022/10/03 12:03:00;;;;;;;1.85;0.50;;;;;;;17.84;74.18;102672.03;4977707;28;20458;-87
2022/10/03 12:05:33;;;;;;;0.88;0.70;;;;;;;17.81;70.18;102665.06;4976980;28;20023;-87
2022/10/03 12:11:24;;;;;;;1.85;0.45;;;;;;;17.70;72.06;102673.09;4965874;28;20502;-88
2022/10/03 12:14:08;;;;;;;0.95;0.70;;;;;;;17.70;73.28;102665.22;4977785;28;20031;-88
2022/10/03 12:17:01;;;;;;;1.08;0.60;;;;;;;17.75;73.10;102667.78;4958929;28;20031;-87
2022/10/03 12:19:33;;;;;;;0.85;0.68;;;;;;;17.83;74.97;102660.66;4960908;29;20032;-96
2022/10/03 12:22:37;;;;;;;0.98;0.60;;;;;;;17.92;71.84;102662.25;4960787;29;20042;-92
2022/10/03 12:25:22;;;;;;;1.00;0.63;;;;;;;17.95;73.04;102662.19;4955498;28;20034;-92
2022/10/03 12:28:01;;;;;;;1.23;0.60;;;;;;;17.93;72.88;102661.34;4970210;28;20502;-92
2022/10/03 12:30:33;;;;;;;1.55;0.75;;;;;;;17.87;72.02;102659.69;4978344;28;20035;-91
2022/10/03 12:33:14;;;;;;;1.50;0.65;;;;;;;17.84;71.68;102649.28;4977939;28;20047;-92
2022/10/03 12:35:52;;;;;;;1.73;1.00;;;;;;;17.77;65.81;102644.13;4977884;28;20041;-96
2022/10/03 12:38:46;;;;;;;1.80;0.70;;;;;;;17.66;72.00;102652.19;4978181;28;20058;-93
2022/10/03 12:41:39;;;;;;;1.90;0.73;;;;;;;17.62;73.95;102654.00;4977712;28;20490;-93
2022/10/03 12:44:26;;;;;;;0.82;0.70;;;;;;;17.56;74.75;102643.59;4975376;28;20046;-94
2022/10/03 12:47:22;;;;;;;0.38;0.30;;;;;;;17.53;74.63;102638.41;4973447;28;20061;-91
2022/10/03 12:50:14;;;;;;;0.60;0.50;;;;;;;17.47;74.27;102635.84;4977851;28;20027;-91
2022/10/03 12:52:56;;;;;;;0.73;0.50;;;;;;;17.41;74.70;102637.69;4977157;28;20027;-91
2022/10/03 12:55:30;;;;;;;0.80;0.38;;;;;;;17.35;74.51;102637.78;4977917;28;20034;-91
2022/10/03 12:58:04;;;;;;;0.30;0.30;;;;;;;17.29;74.91;102637.88;4964267;28;20059;-91
2022/10/03 13:00:55;;;;;;;0.82;0.32;;;;;;;17.27;75.29;102642.28;4957873;29;20385;-91
2022/10/03 13:03:52;;;;;;;0.88;0.40;;;;;;;17.27;73.91;102644.91;4939511;29;20174;-91
2022/10/03 13:06:48;;;;;;;0.40;0.40;;;;;;;17.25;74.74;102636.19;4950291;29;20031;-92
2022/10/03 13:09:52;;;;;;;0.40;0.30;;;;;;;17.26;75.03;102635.28;4956241;28;20065;-89
2022/10/03 13:12:33;;;;;;;0.50;0.40;;;;;;;17.24;74.07;102626.56;4954223;28;20035;-92
2022/10/03 13:15:29;;;;;;;0.35;0.35;;;;;;;17.26;74.46;102627.44;4982076;23;20066;-93
2022/10/03 13:18:15;;;;;;;0.77;0.40;;;;;;;17.30;73.32;102629.13;4996516;28;20189;-92
2022/10/03 13:20:49;;;;;;;0.50;0.40;;;;;;;17.35;74.95;102619.41;4976016;28;20034;-90
2022/10/03 13:23:27;;;;;;;0.50;0.50;;;;;;;17.40;74.15;102624.56;4977278;28;20034;-92
2022/10/03 13:26:14;;;;;;;0.75;0.30;;;;;;;17.45;74.03;102625.38;4976194;28;20057;-92
2022/10/03 13:28:58;;;;;;;0.45;0.40;;;;;;;17.50;73.68;102622.69;4976756;28;20034;-92